sensor_id;sensor_type;location;lat;lon;timestamp;P1;durP1;ratioP1;P2;durP2;ratioP2
66523;SDS011;53350;52.210;5.160;2024-03-17T00:00:17;13.32;;;3.10;;
66523;SDS011;53350;52.210;5.160;2024-03-17T00:02:43;8.68;;;2.22;;
66523;SDS011;53350;52.210;5.160;2024-03-17T00:05:10;13.85;;;2.78;;
66523;SDS011;53350;52.210;5.160;2024-03-17T00:07:37;12.82;;;2.63;;
66523;SDS011;53350;52.210;5.160;2024-03-17T00:10:03;11.75;;;2.70;;
66523;SDS011;53350;52.210;5.160;2024-03-17T00:12:30;13.25;;;3.10;;
66523;SDS011;53350;52.210;5.160;2024-03-17T00:14:55;14.25;;;3.20;;
66523;SDS011;53350;52.210;5.160;2024-03-17T00:17:22;11.00;;;3.40;;
66523;SDS011;53350;52.210;5.160;2024-03-17T00:19:48;11.85;;;3.00;;
66523;SDS011;53350;52.210;5.160;2024-03-17T00:22:15;12.05;;;2.72;;
66523;SDS011;53350;52.210;5.160;2024-03-17T00:24:42;10.60;;;2.53;;
66523;SDS011;53350;52.210;5.160;2024-03-17T00:27:10;11.95;;;2.65;;
66523;SDS011;53350;52.210;5.160;2024-03-17T00:29:36;12.05;;;2.72;;
66523;SDS011;53350;52.210;5.160;2024-03-17T00:32:03;9.93;;;2.30;;
66523;SDS011;53350;52.210;5.160;2024-03-17T00:34:28;11.75;;;2.58;;
66523;SDS011;53350;52.210;5.160;2024-03-17T00:36:55;12.35;;;2.50;;
66523;SDS011;53350;52.210;5.160;2024-03-17T00:39:22;10.70;;;2.78;;
66523;SDS011;53350;52.210;5.160;2024-03-17T00:41:48;10.13;;;2.30;;
66523;SDS011;53350;52.210;5.160;2024-03-17T00:44:14;14.27;;;3.25;;
66523;SDS011;53350;52.210;5.160;2024-03-17T00:46:40;9.10;;;2.47;;
66523;SDS011;53350;52.210;5.160;2024-03-17T00:49:07;9.52;;;2.85;;
66523;SDS011;53350;52.210;5.160;2024-03-17T00:51:33;9.52;;;2.67;;
66523;SDS011;53350;52.210;5.160;2024-03-17T00:53:59;13.07;;;2.92;;
66523;SDS011;53350;52.210;5.160;2024-03-17T00:56:27;8.90;;;2.58;;
66523;SDS011;53350;52.210;5.160;2024-03-17T00:58:53;12.05;;;2.90;;
66523;SDS011;53350;52.210;5.160;2024-03-17T01:01:19;14.93;;;2.80;;
66523;SDS011;53350;52.210;5.160;2024-03-17T01:03:45;11.23;;;2.78;;
66523;SDS011;53350;52.210;5.160;2024-03-17T01:06:11;15.55;;;2.60;;
66523;SDS011;53350;52.210;5.160;2024-03-17T01:08:37;12.90;;;2.88;;
66523;SDS011;53350;52.210;5.160;2024-03-17T01:11:03;13.80;;;3.58;;
66523;SDS011;53350;52.210;5.160;2024-03-17T01:13:34;10.93;;;2.50;;
66523;SDS011;53350;52.210;5.160;2024-03-17T01:16:06;12.82;;;2.88;;
66523;SDS011;53350;52.210;5.160;2024-03-17T01:18:32;9.90;;;2.30;;
66523;SDS011;53350;52.210;5.160;2024-03-17T01:20:59;12.82;;;2.65;;
66523;SDS011;53350;52.210;5.160;2024-03-17T01:23:25;10.88;;;3.38;;
66523;SDS011;53350;52.210;5.160;2024-03-17T01:25:51;12.48;;;2.83;;
66523;SDS011;53350;52.210;5.160;2024-03-17T01:28:17;15.23;;;3.05;;
66523;SDS011;53350;52.210;5.160;2024-03-17T01:30:45;10.48;;;3.00;;
66523;SDS011;53350;52.210;5.160;2024-03-17T01:33:12;14.00;;;3.47;;
66523;SDS011;53350;52.210;5.160;2024-03-17T01:35:38;11.25;;;3.13;;
66523;SDS011;53350;52.210;5.160;2024-03-17T01:38:04;13.15;;;3.90;;
66523;SDS011;53350;52.210;5.160;2024-03-17T01:40:30;16.45;;;3.35;;
66523;SDS011;53350;52.210;5.160;2024-03-17T01:42:56;13.02;;;3.65;;
66523;SDS011;53350;52.210;5.160;2024-03-17T01:45:26;14.98;;;3.70;;
66523;SDS011;53350;52.210;5.160;2024-03-17T01:47:55;10.30;;;3.25;;
66523;SDS011;53350;52.210;5.160;2024-03-17T01:50:24;14.63;;;3.55;;
66523;SDS011;53350;52.210;5.160;2024-03-17T01:52:53;12.85;;;3.40;;
66523;SDS011;53350;52.210;5.160;2024-03-17T01:55:24;9.40;;;2.92;;
66523;SDS011;53350;52.210;5.160;2024-03-17T01:57:50;11.15;;;3.60;;
66523;SDS011;53350;52.210;5.160;2024-03-17T02:00:18;14.07;;;3.58;;
66523;SDS011;53350;52.210;5.160;2024-03-17T02:02:43;10.00;;;2.95;;
66523;SDS011;53350;52.210;5.160;2024-03-17T02:05:11;9.35;;;3.20;;
66523;SDS011;53350;52.210;5.160;2024-03-17T02:07:37;8.60;;;3.17;;
66523;SDS011;53350;52.210;5.160;2024-03-17T02:10:03;10.38;;;3.53;;
66523;SDS011;53350;52.210;5.160;2024-03-17T02:12:30;13.05;;;3.60;;
66523;SDS011;53350;52.210;5.160;2024-03-17T02:14:57;11.93;;;3.75;;
66523;SDS011;53350;52.210;5.160;2024-03-17T02:17:23;10.15;;;3.90;;
66523;SDS011;53350;52.210;5.160;2024-03-17T02:22:19;15.82;;;3.70;;
66523;SDS011;53350;52.210;5.160;2024-03-17T02:24:45;10.80;;;3.92;;
66523;SDS011;53350;52.210;5.160;2024-03-17T02:27:11;9.38;;;3.70;;
66523;SDS011;53350;52.210;5.160;2024-03-17T02:29:38;12.13;;;4.30;;
66523;SDS011;53350;52.210;5.160;2024-03-17T02:32:04;12.93;;;4.30;;
66523;SDS011;53350;52.210;5.160;2024-03-17T02:34:32;18.48;;;4.65;;
66523;SDS011;53350;52.210;5.160;2024-03-17T02:36:58;11.40;;;4.43;;
66523;SDS011;53350;52.210;5.160;2024-03-17T02:39:26;15.18;;;4.40;;
66523;SDS011;53350;52.210;5.160;2024-03-17T02:42:01;10.48;;;4.38;;
66523;SDS011;53350;52.210;5.160;2024-03-17T02:44:29;10.25;;;4.10;;
66523;SDS011;53350;52.210;5.160;2024-03-17T02:46:56;11.63;;;4.35;;
66523;SDS011;53350;52.210;5.160;2024-03-17T02:49:23;11.73;;;4.22;;
66523;SDS011;53350;52.210;5.160;2024-03-17T02:51:51;12.25;;;4.35;;
66523;SDS011;53350;52.210;5.160;2024-03-17T02:54:19;10.90;;;4.30;;
66523;SDS011;53350;52.210;5.160;2024-03-17T02:56:46;15.40;;;4.90;;
66523;SDS011;53350;52.210;5.160;2024-03-17T02:59:13;12.25;;;4.18;;
66523;SDS011;53350;52.210;5.160;2024-03-17T03:01:39;14.75;;;4.68;;
66523;SDS011;53350;52.210;5.160;2024-03-17T03:04:06;11.48;;;4.55;;
66523;SDS011;53350;52.210;5.160;2024-03-17T03:06:33;11.93;;;4.20;;
66523;SDS011;53350;52.210;5.160;2024-03-17T03:09:00;14.23;;;5.35;;
66523;SDS011;53350;52.210;5.160;2024-03-17T03:11:26;10.93;;;4.57;;
66523;SDS011;53350;52.210;5.160;2024-03-17T03:13:54;13.63;;;4.38;;
66523;SDS011;53350;52.210;5.160;2024-03-17T03:16:21;13.80;;;4.03;;
66523;SDS011;53350;52.210;5.160;2024-03-17T03:18:47;12.60;;;4.85;;
66523;SDS011;53350;52.210;5.160;2024-03-17T03:21:14;15.20;;;4.65;;
66523;SDS011;53350;52.210;5.160;2024-03-17T03:23:41;11.48;;;4.70;;
66523;SDS011;53350;52.210;5.160;2024-03-17T03:26:07;11.95;;;4.20;;
66523;SDS011;53350;52.210;5.160;2024-03-17T03:28:34;11.15;;;4.50;;
66523;SDS011;53350;52.210;5.160;2024-03-17T03:31:03;12.70;;;5.70;;
66523;SDS011;53350;52.210;5.160;2024-03-17T03:33:29;15.60;;;5.10;;
66523;SDS011;53350;52.210;5.160;2024-03-17T03:35:57;16.25;;;4.78;;
66523;SDS011;53350;52.210;5.160;2024-03-17T03:38:23;14.32;;;5.30;;
66523;SDS011;53350;52.210;5.160;2024-03-17T03:40:50;10.50;;;4.60;;
66523;SDS011;53350;52.210;5.160;2024-03-17T03:43:17;10.00;;;4.53;;
66523;SDS011;53350;52.210;5.160;2024-03-17T03:45:45;11.60;;;4.70;;
66523;SDS011;53350;52.210;5.160;2024-03-17T03:48:12;12.20;;;5.50;;
66523;SDS011;53350;52.210;5.160;2024-03-17T03:50:39;12.60;;;5.13;;
66523;SDS011;53350;52.210;5.160;2024-03-17T03:53:06;9.68;;;5.03;;
66523;SDS011;53350;52.210;5.160;2024-03-17T03:55:31;13.50;;;5.38;;
66523;SDS011;53350;52.210;5.160;2024-03-17T03:57:58;10.05;;;4.82;;
66523;SDS011;53350;52.210;5.160;2024-03-17T04:00:25;10.15;;;5.00;;
66523;SDS011;53350;52.210;5.160;2024-03-17T04:02:54;11.75;;;5.13;;
66523;SDS011;53350;52.210;5.160;2024-03-17T04:05:23;12.30;;;5.10;;
66523;SDS011;53350;52.210;5.160;2024-03-17T04:07:49;11.57;;;4.97;;
66523;SDS011;53350;52.210;5.160;2024-03-17T04:10:16;13.77;;;5.28;;
66523;SDS011;53350;52.210;5.160;2024-03-17T04:12:43;15.77;;;5.47;;
66523;SDS011;53350;52.210;5.160;2024-03-17T04:15:10;14.88;;;5.32;;
66523;SDS011;53350;52.210;5.160;2024-03-17T04:17:36;10.25;;;5.45;;
66523;SDS011;53350;52.210;5.160;2024-03-17T04:20:04;11.13;;;5.03;;
66523;SDS011;53350;52.210;5.160;2024-03-17T04:22:34;13.40;;;5.28;;
66523;SDS011;53350;52.210;5.160;2024-03-17T04:25:01;11.40;;;5.22;;
66523;SDS011;53350;52.210;5.160;2024-03-17T04:27:28;10.27;;;5.25;;
66523;SDS011;53350;52.210;5.160;2024-03-17T04:29:56;14.73;;;5.60;;
66523;SDS011;53350;52.210;5.160;2024-03-17T04:32:24;13.52;;;5.45;;
66523;SDS011;53350;52.210;5.160;2024-03-17T04:34:52;11.20;;;5.43;;
66523;SDS011;53350;52.210;5.160;2024-03-17T04:37:18;13.18;;;5.13;;
66523;SDS011;53350;52.210;5.160;2024-03-17T04:39:46;11.45;;;5.10;;
66523;SDS011;53350;52.210;5.160;2024-03-17T04:42:13;12.68;;;5.50;;
66523;SDS011;53350;52.210;5.160;2024-03-17T04:47:08;9.65;;;4.45;;
66523;SDS011;53350;52.210;5.160;2024-03-17T04:49:35;13.15;;;5.38;;
66523;SDS011;53350;52.210;5.160;2024-03-17T04:52:02;12.55;;;5.43;;
66523;SDS011;53350;52.210;5.160;2024-03-17T04:54:29;10.00;;;4.50;;
66523;SDS011;53350;52.210;5.160;2024-03-17T04:56:58;10.75;;;5.45;;
66523;SDS011;53350;52.210;5.160;2024-03-17T04:59:24;10.35;;;5.57;;
66523;SDS011;53350;52.210;5.160;2024-03-17T05:01:51;11.35;;;5.25;;
66523;SDS011;53350;52.210;5.160;2024-03-17T05:04:17;12.60;;;5.10;;
66523;SDS011;53350;52.210;5.160;2024-03-17T05:06:44;11.30;;;5.15;;
66523;SDS011;53350;52.210;5.160;2024-03-17T05:09:11;13.27;;;5.85;;
66523;SDS011;53350;52.210;5.160;2024-03-17T05:11:39;9.30;;;5.45;;
66523;SDS011;53350;52.210;5.160;2024-03-17T05:14:07;10.27;;;5.97;;
66523;SDS011;53350;52.210;5.160;2024-03-17T05:19:00;10.65;;;4.95;;
66523;SDS011;53350;52.210;5.160;2024-03-17T05:21:27;11.68;;;5.82;;
66523;SDS011;53350;52.210;5.160;2024-03-17T05:23:55;11.18;;;5.90;;
66523;SDS011;53350;52.210;5.160;2024-03-17T05:26:22;12.32;;;5.80;;
66523;SDS011;53350;52.210;5.160;2024-03-17T05:28:49;14.75;;;5.38;;
66523;SDS011;53350;52.210;5.160;2024-03-17T05:31:17;11.68;;;6.05;;
66523;SDS011;53350;52.210;5.160;2024-03-17T05:33:45;10.57;;;5.63;;
66523;SDS011;53350;52.210;5.160;2024-03-17T05:36:12;19.88;;;6.00;;
66523;SDS011;53350;52.210;5.160;2024-03-17T05:38:38;10.32;;;6.25;;
66523;SDS011;53350;52.210;5.160;2024-03-17T05:41:05;10.65;;;5.88;;
66523;SDS011;53350;52.210;5.160;2024-03-17T05:43:33;14.48;;;5.32;;
66523;SDS011;53350;52.210;5.160;2024-03-17T05:46:01;11.13;;;4.95;;
66523;SDS011;53350;52.210;5.160;2024-03-17T05:48:29;12.82;;;5.63;;
66523;SDS011;53350;52.210;5.160;2024-03-17T05:50:56;9.43;;;5.15;;
66523;SDS011;53350;52.210;5.160;2024-03-17T05:53:22;13.20;;;5.47;;
66523;SDS011;53350;52.210;5.160;2024-03-17T05:55:50;12.50;;;5.17;;
66523;SDS011;53350;52.210;5.160;2024-03-17T05:58:16;16.15;;;6.30;;
66523;SDS011;53350;52.210;5.160;2024-03-17T06:00:43;9.13;;;4.97;;
66523;SDS011;53350;52.210;5.160;2024-03-17T06:03:09;11.15;;;5.32;;
66523;SDS011;53350;52.210;5.160;2024-03-17T06:05:38;11.95;;;6.10;;
66523;SDS011;53350;52.210;5.160;2024-03-17T06:08:06;11.13;;;5.28;;
66523;SDS011;53350;52.210;5.160;2024-03-17T06:10:34;10.50;;;5.17;;
66523;SDS011;53350;52.210;5.160;2024-03-17T06:13:02;13.05;;;5.55;;
66523;SDS011;53350;52.210;5.160;2024-03-17T06:15:29;10.82;;;5.03;;
66523;SDS011;53350;52.210;5.160;2024-03-17T06:17:56;8.82;;;5.38;;
66523;SDS011;53350;52.210;5.160;2024-03-17T06:20:24;9.65;;;5.45;;
66523;SDS011;53350;52.210;5.160;2024-03-17T06:22:53;11.35;;;5.63;;
66523;SDS011;53350;52.210;5.160;2024-03-17T06:25:19;11.30;;;5.30;;
66523;SDS011;53350;52.210;5.160;2024-03-17T06:27:48;10.63;;;5.32;;
66523;SDS011;53350;52.210;5.160;2024-03-17T06:30:15;11.25;;;5.65;;
66523;SDS011;53350;52.210;5.160;2024-03-17T06:32:41;11.30;;;5.75;;
66523;SDS011;53350;52.210;5.160;2024-03-17T06:37:37;9.30;;;5.15;;
66523;SDS011;53350;52.210;5.160;2024-03-17T06:40:06;9.70;;;4.90;;
66523;SDS011;53350;52.210;5.160;2024-03-17T06:42:36;9.75;;;5.75;;
66523;SDS011;53350;52.210;5.160;2024-03-17T06:45:03;9.75;;;4.95;;
66523;SDS011;53350;52.210;5.160;2024-03-17T06:47:30;11.77;;;5.78;;
66523;SDS011;53350;52.210;5.160;2024-03-17T06:49:57;9.57;;;5.18;;
66523;SDS011;53350;52.210;5.160;2024-03-17T06:52:23;9.85;;;5.28;;
66523;SDS011;53350;52.210;5.160;2024-03-17T06:54:49;9.52;;;5.25;;
66523;SDS011;53350;52.210;5.160;2024-03-17T06:57:17;9.68;;;5.22;;
66523;SDS011;53350;52.210;5.160;2024-03-17T06:59:44;10.95;;;5.88;;
66523;SDS011;53350;52.210;5.160;2024-03-17T07:02:13;12.93;;;6.25;;
66523;SDS011;53350;52.210;5.160;2024-03-17T07:04:42;10.50;;;5.28;;
66523;SDS011;53350;52.210;5.160;2024-03-17T07:07:09;9.80;;;5.63;;
66523;SDS011;53350;52.210;5.160;2024-03-17T07:09:37;11.00;;;5.75;;
66523;SDS011;53350;52.210;5.160;2024-03-17T07:12:03;11.18;;;5.90;;
66523;SDS011;53350;52.210;5.160;2024-03-17T07:14:32;8.77;;;5.43;;
66523;SDS011;53350;52.210;5.160;2024-03-17T07:16:58;9.88;;;5.43;;
66523;SDS011;53350;52.210;5.160;2024-03-17T07:19:24;12.77;;;6.00;;
66523;SDS011;53350;52.210;5.160;2024-03-17T07:21:51;12.27;;;5.75;;
66523;SDS011;53350;52.210;5.160;2024-03-17T07:24:19;16.70;;;5.65;;
66523;SDS011;53350;52.210;5.160;2024-03-17T07:26:47;11.40;;;6.15;;
66523;SDS011;53350;52.210;5.160;2024-03-17T07:31:41;14.85;;;6.05;;
66523;SDS011;53350;52.210;5.160;2024-03-17T07:34:08;13.40;;;6.32;;
66523;SDS011;53350;52.210;5.160;2024-03-17T07:36:34;11.75;;;6.03;;
66523;SDS011;53350;52.210;5.160;2024-03-17T07:39:01;13.88;;;6.53;;
66523;SDS011;53350;52.210;5.160;2024-03-17T07:41:28;13.48;;;6.70;;
66523;SDS011;53350;52.210;5.160;2024-03-17T07:43:55;12.80;;;6.70;;
66523;SDS011;53350;52.210;5.160;2024-03-17T07:46:21;12.95;;;7.70;;
66523;SDS011;53350;52.210;5.160;2024-03-17T07:48:49;9.52;;;5.85;;
66523;SDS011;53350;52.210;5.160;2024-03-17T07:53:43;11.38;;;6.00;;
66523;SDS011;53350;52.210;5.160;2024-03-17T07:56:12;10.77;;;6.30;;
66523;SDS011;53350;52.210;5.160;2024-03-17T07:58:40;10.93;;;6.57;;
66523;SDS011;53350;52.210;5.160;2024-03-17T08:01:09;12.45;;;6.38;;
66523;SDS011;53350;52.210;5.160;2024-03-17T08:06:05;11.02;;;6.88;;
66523;SDS011;53350;52.210;5.160;2024-03-17T08:08:33;12.35;;;6.65;;
66523;SDS011;53350;52.210;5.160;2024-03-17T08:11:00;12.57;;;5.60;;
66523;SDS011;53350;52.210;5.160;2024-03-17T08:13:28;9.80;;;5.95;;
66523;SDS011;53350;52.210;5.160;2024-03-17T08:15:59;10.68;;;5.68;;
66523;SDS011;53350;52.210;5.160;2024-03-17T08:18:26;11.73;;;6.05;;
66523;SDS011;53350;52.210;5.160;2024-03-17T08:20:53;11.55;;;6.20;;
66523;SDS011;53350;52.210;5.160;2024-03-17T08:23:21;10.55;;;5.82;;
66523;SDS011;53350;52.210;5.160;2024-03-17T08:25:51;10.27;;;5.72;;
66523;SDS011;53350;52.210;5.160;2024-03-17T08:28:18;13.13;;;6.57;;
66523;SDS011;53350;52.210;5.160;2024-03-17T08:30:50;9.40;;;6.03;;
66523;SDS011;53350;52.210;5.160;2024-03-17T08:33:17;12.38;;;6.15;;
66523;SDS011;53350;52.210;5.160;2024-03-17T08:35:51;12.70;;;6.40;;
66523;SDS011;53350;52.210;5.160;2024-03-17T08:38:18;11.68;;;6.35;;
66523;SDS011;53350;52.210;5.160;2024-03-17T08:40:46;12.52;;;6.32;;
66523;SDS011;53350;52.210;5.160;2024-03-17T08:43:13;11.73;;;6.65;;
66523;SDS011;53350;52.210;5.160;2024-03-17T08:45:40;10.75;;;6.30;;
66523;SDS011;53350;52.210;5.160;2024-03-17T08:48:06;12.70;;;6.13;;
66523;SDS011;53350;52.210;5.160;2024-03-17T08:50:33;10.32;;;5.88;;
66523;SDS011;53350;52.210;5.160;2024-03-17T08:52:59;13.65;;;6.78;;
66523;SDS011;53350;52.210;5.160;2024-03-17T08:55:26;10.50;;;6.53;;
66523;SDS011;53350;52.210;5.160;2024-03-17T08:57:54;12.95;;;6.20;;
66523;SDS011;53350;52.210;5.160;2024-03-17T09:00:20;13.80;;;6.68;;
66523;SDS011;53350;52.210;5.160;2024-03-17T09:02:46;10.52;;;6.40;;
66523;SDS011;53350;52.210;5.160;2024-03-17T09:05:13;12.13;;;6.28;;
66523;SDS011;53350;52.210;5.160;2024-03-17T09:07:38;10.45;;;6.45;;
66523;SDS011;53350;52.210;5.160;2024-03-17T09:10:05;11.60;;;6.05;;
66523;SDS011;53350;52.210;5.160;2024-03-17T09:15:03;10.93;;;6.50;;
66523;SDS011;53350;52.210;5.160;2024-03-17T09:17:31;9.65;;;6.10;;
66523;SDS011;53350;52.210;5.160;2024-03-17T09:19:57;10.98;;;6.72;;
66523;SDS011;53350;52.210;5.160;2024-03-17T09:22:23;10.02;;;6.47;;
66523;SDS011;53350;52.210;5.160;2024-03-17T09:24:50;9.57;;;6.20;;
66523;SDS011;53350;52.210;5.160;2024-03-17T09:27:16;11.30;;;6.95;;
66523;SDS011;53350;52.210;5.160;2024-03-17T09:29:45;13.30;;;6.93;;
66523;SDS011;53350;52.210;5.160;2024-03-17T09:32:13;12.20;;;7.07;;
66523;SDS011;53350;52.210;5.160;2024-03-17T09:34:42;12.68;;;7.30;;
66523;SDS011;53350;52.210;5.160;2024-03-17T09:37:09;11.82;;;6.38;;
66523;SDS011;53350;52.210;5.160;2024-03-17T09:39:35;11.40;;;6.57;;
66523;SDS011;53350;52.210;5.160;2024-03-17T09:42:02;10.07;;;6.53;;
66523;SDS011;53350;52.210;5.160;2024-03-17T09:44:32;11.30;;;6.95;;
66523;SDS011;53350;52.210;5.160;2024-03-17T09:46:59;11.90;;;6.60;;
66523;SDS011;53350;52.210;5.160;2024-03-17T09:49:29;11.48;;;6.65;;
66523;SDS011;53350;52.210;5.160;2024-03-17T09:51:56;9.90;;;6.43;;
66523;SDS011;53350;52.210;5.160;2024-03-17T09:54:25;12.40;;;6.18;;
66523;SDS011;53350;52.210;5.160;2024-03-17T09:56:51;12.82;;;6.53;;
66523;SDS011;53350;52.210;5.160;2024-03-17T09:59:17;12.82;;;6.60;;
66523;SDS011;53350;52.210;5.160;2024-03-17T10:01:44;12.55;;;6.28;;
66523;SDS011;53350;52.210;5.160;2024-03-17T10:04:14;10.93;;;6.13;;
66523;SDS011;53350;52.210;5.160;2024-03-17T10:06:59;11.60;;;6.35;;
66523;SDS011;53350;52.210;5.160;2024-03-17T10:09:25;10.63;;;5.90;;
66523;SDS011;53350;52.210;5.160;2024-03-17T10:11:57;11.65;;;6.43;;
66523;SDS011;53350;52.210;5.160;2024-03-17T10:14:23;11.88;;;6.00;;
66523;SDS011;53350;52.210;5.160;2024-03-17T10:16:50;12.63;;;6.57;;
66523;SDS011;53350;52.210;5.160;2024-03-17T10:19:22;11.00;;;6.40;;
66523;SDS011;53350;52.210;5.160;2024-03-17T10:21:58;11.30;;;6.35;;
66523;SDS011;53350;52.210;5.160;2024-03-17T10:24:26;9.45;;;5.88;;
66523;SDS011;53350;52.210;5.160;2024-03-17T10:26:54;12.15;;;6.10;;
66523;SDS011;53350;52.210;5.160;2024-03-17T10:31:50;12.15;;;5.70;;
66523;SDS011;53350;52.210;5.160;2024-03-17T10:34:18;12.75;;;5.72;;
66523;SDS011;53350;52.210;5.160;2024-03-17T10:36:44;13.57;;;5.93;;
66523;SDS011;53350;52.210;5.160;2024-03-17T10:39:22;10.00;;;6.07;;
66523;SDS011;53350;52.210;5.160;2024-03-17T10:41:54;10.52;;;6.07;;
66523;SDS011;53350;52.210;5.160;2024-03-17T10:44:22;12.32;;;6.03;;
66523;SDS011;53350;52.210;5.160;2024-03-17T10:46:48;9.73;;;5.15;;
66523;SDS011;53350;52.210;5.160;2024-03-17T10:49:18;10.00;;;5.88;;
66523;SDS011;53350;52.210;5.160;2024-03-17T10:51:45;10.48;;;5.45;;
66523;SDS011;53350;52.210;5.160;2024-03-17T10:54:21;10.07;;;5.88;;
66523;SDS011;53350;52.210;5.160;2024-03-17T10:56:51;11.00;;;5.70;;
66523;SDS011;53350;52.210;5.160;2024-03-17T10:59:19;8.95;;;5.43;;
66523;SDS011;53350;52.210;5.160;2024-03-17T11:01:51;9.75;;;5.78;;
66523;SDS011;53350;52.210;5.160;2024-03-17T11:04:19;9.60;;;4.95;;
66523;SDS011;53350;52.210;5.160;2024-03-17T11:06:46;10.07;;;4.97;;
66523;SDS011;53350;52.210;5.160;2024-03-17T11:09:14;9.45;;;4.90;;
66523;SDS011;53350;52.210;5.160;2024-03-17T11:11:43;10.57;;;4.88;;
66523;SDS011;53350;52.210;5.160;2024-03-17T11:14:16;10.98;;;5.47;;
66523;SDS011;53350;52.210;5.160;2024-03-17T11:16:44;9.80;;;4.47;;
66523;SDS011;53350;52.210;5.160;2024-03-17T11:19:14;9.95;;;4.97;;
66523;SDS011;53350;52.210;5.160;2024-03-17T11:21:41;8.27;;;4.95;;
66523;SDS011;53350;52.210;5.160;2024-03-17T11:24:17;12.13;;;4.70;;
66523;SDS011;53350;52.210;5.160;2024-03-17T11:26:46;10.25;;;4.80;;
66523;SDS011;53350;52.210;5.160;2024-03-17T11:29:27;12.95;;;5.45;;
66523;SDS011;53350;52.210;5.160;2024-03-17T11:31:54;11.88;;;5.40;;
66523;SDS011;53350;52.210;5.160;2024-03-17T11:34:31;10.05;;;4.75;;
66523;SDS011;53350;52.210;5.160;2024-03-17T11:36:59;11.07;;;5.00;;
66523;SDS011;53350;52.210;5.160;2024-03-17T11:42:17;9.40;;;5.13;;
66523;SDS011;53350;52.210;5.160;2024-03-17T11:44:44;9.18;;;5.78;;
66523;SDS011;53350;52.210;5.160;2024-03-17T11:47:20;11.02;;;5.70;;
66523;SDS011;53350;52.210;5.160;2024-03-17T11:49:47;12.15;;;5.70;;
66523;SDS011;53350;52.210;5.160;2024-03-17T11:52:14;11.50;;;6.40;;
66523;SDS011;53350;52.210;5.160;2024-03-17T11:54:42;9.18;;;5.97;;
66523;SDS011;53350;52.210;5.160;2024-03-17T11:57:09;10.30;;;5.63;;
66523;SDS011;53350;52.210;5.160;2024-03-17T11:59:38;10.00;;;5.40;;
66523;SDS011;53350;52.210;5.160;2024-03-17T12:02:09;9.52;;;5.55;;
66523;SDS011;53350;52.210;5.160;2024-03-17T12:04:42;12.25;;;6.07;;
66523;SDS011;53350;52.210;5.160;2024-03-17T12:07:09;10.18;;;6.13;;
66523;SDS011;53350;52.210;5.160;2024-03-17T12:09:37;12.15;;;6.00;;
66523;SDS011;53350;52.210;5.160;2024-03-17T12:12:05;12.50;;;5.82;;
66523;SDS011;53350;52.210;5.160;2024-03-17T12:14:32;11.50;;;5.78;;
66523;SDS011;53350;52.210;5.160;2024-03-17T12:17:01;14.02;;;6.50;;
66523;SDS011;53350;52.210;5.160;2024-03-17T12:19:28;12.32;;;5.70;;
66523;SDS011;53350;52.210;5.160;2024-03-17T12:21:55;15.30;;;6.40;;
66523;SDS011;53350;52.210;5.160;2024-03-17T12:24:22;12.38;;;5.32;;
66523;SDS011;53350;52.210;5.160;2024-03-17T12:26:50;11.85;;;6.53;;
66523;SDS011;53350;52.210;5.160;2024-03-17T12:29:21;12.43;;;5.88;;
66523;SDS011;53350;52.210;5.160;2024-03-17T12:31:49;11.30;;;6.00;;
66523;SDS011;53350;52.210;5.160;2024-03-17T12:34:17;11.65;;;5.97;;
66523;SDS011;53350;52.210;5.160;2024-03-17T12:36:44;12.93;;;6.15;;
66523;SDS011;53350;52.210;5.160;2024-03-17T12:39:11;12.05;;;6.30;;
66523;SDS011;53350;52.210;5.160;2024-03-17T12:41:43;14.25;;;6.55;;
66523;SDS011;53350;52.210;5.160;2024-03-17T12:44:18;13.07;;;6.15;;
66523;SDS011;53350;52.210;5.160;2024-03-17T12:46:47;9.82;;;5.95;;
66523;SDS011;53350;52.210;5.160;2024-03-17T12:49:13;10.30;;;6.30;;
66523;SDS011;53350;52.210;5.160;2024-03-17T12:51:40;11.60;;;5.88;;
66523;SDS011;53350;52.210;5.160;2024-03-17T12:54:13;12.13;;;6.47;;
66523;SDS011;53350;52.210;5.160;2024-03-17T12:56:39;11.65;;;6.65;;
66523;SDS011;53350;52.210;5.160;2024-03-17T12:59:23;11.75;;;6.70;;
66523;SDS011;53350;52.210;5.160;2024-03-17T13:02:07;16.02;;;6.80;;
66523;SDS011;53350;52.210;5.160;2024-03-17T13:04:38;14.55;;;6.85;;
66523;SDS011;53350;52.210;5.160;2024-03-17T13:07:12;10.30;;;6.40;;
66523;SDS011;53350;52.210;5.160;2024-03-17T13:09:38;12.25;;;6.43;;
66523;SDS011;53350;52.210;5.160;2024-03-17T13:12:12;12.23;;;7.05;;
66523;SDS011;53350;52.210;5.160;2024-03-17T13:14:41;12.80;;;7.50;;
66523;SDS011;53350;52.210;5.160;2024-03-17T13:17:07;13.55;;;6.90;;
66523;SDS011;53350;52.210;5.160;2024-03-17T13:19:42;12.02;;;6.68;;
66523;SDS011;53350;52.210;5.160;2024-03-17T13:22:13;11.40;;;6.78;;
66523;SDS011;53350;52.210;5.160;2024-03-17T13:24:39;12.63;;;6.82;;
66523;SDS011;53350;52.210;5.160;2024-03-17T13:27:06;16.35;;;6.53;;
66523;SDS011;53350;52.210;5.160;2024-03-17T13:29:33;10.95;;;7.00;;
66523;SDS011;53350;52.210;5.160;2024-03-17T13:32:01;11.73;;;6.78;;
66523;SDS011;53350;52.210;5.160;2024-03-17T13:34:27;12.38;;;6.40;;
66523;SDS011;53350;52.210;5.160;2024-03-17T13:36:54;10.98;;;6.45;;
66523;SDS011;53350;52.210;5.160;2024-03-17T13:39:22;10.65;;;6.70;;
66523;SDS011;53350;52.210;5.160;2024-03-17T13:41:49;12.45;;;6.88;;
66523;SDS011;53350;52.210;5.160;2024-03-17T13:44:17;11.23;;;7.20;;
66523;SDS011;53350;52.210;5.160;2024-03-17T13:46:44;14.68;;;7.32;;
66523;SDS011;53350;52.210;5.160;2024-03-17T13:49:10;15.85;;;7.30;;
66523;SDS011;53350;52.210;5.160;2024-03-17T13:51:37;11.05;;;6.80;;
66523;SDS011;53350;52.210;5.160;2024-03-17T13:54:03;12.07;;;6.57;;
66523;SDS011;53350;52.210;5.160;2024-03-17T13:56:31;11.43;;;6.60;;
66523;SDS011;53350;52.210;5.160;2024-03-17T13:58:57;11.75;;;5.85;;
66523;SDS011;53350;52.210;5.160;2024-03-17T14:01:24;13.18;;;7.03;;
66523;SDS011;53350;52.210;5.160;2024-03-17T14:03:50;15.35;;;6.45;;
66523;SDS011;53350;52.210;5.160;2024-03-17T14:06:17;15.00;;;7.03;;
66523;SDS011;53350;52.210;5.160;2024-03-17T14:08:44;14.00;;;6.10;;
66523;SDS011;53350;52.210;5.160;2024-03-17T14:11:11;11.85;;;6.13;;
66523;SDS011;53350;52.210;5.160;2024-03-17T14:13:39;9.85;;;5.85;;
66523;SDS011;53350;52.210;5.160;2024-03-17T14:16:06;10.43;;;6.13;;
66523;SDS011;53350;52.210;5.160;2024-03-17T14:18:32;11.85;;;5.97;;
66523;SDS011;53350;52.210;5.160;2024-03-17T14:20:59;11.05;;;6.32;;
66523;SDS011;53350;52.210;5.160;2024-03-17T14:23:25;12.50;;;6.13;;
66523;SDS011;53350;52.210;5.160;2024-03-17T14:25:54;13.85;;;6.07;;
66523;SDS011;53350;52.210;5.160;2024-03-17T14:28:21;9.02;;;5.60;;
66523;SDS011;53350;52.210;5.160;2024-03-17T14:30:49;10.07;;;5.72;;
66523;SDS011;53350;52.210;5.160;2024-03-17T14:33:16;11.73;;;5.78;;
66523;SDS011;53350;52.210;5.160;2024-03-17T14:35:42;11.32;;;5.93;;
66523;SDS011;53350;52.210;5.160;2024-03-17T14:38:09;11.23;;;5.63;;
66523;SDS011;53350;52.210;5.160;2024-03-17T14:40:35;11.98;;;5.88;;
66523;SDS011;53350;52.210;5.160;2024-03-17T14:43:02;11.63;;;4.88;;
66523;SDS011;53350;52.210;5.160;2024-03-17T14:45:28;16.27;;;6.70;;
66523;SDS011;53350;52.210;5.160;2024-03-17T14:47:57;8.60;;;5.57;;
66523;SDS011;53350;52.210;5.160;2024-03-17T14:50:23;10.45;;;5.95;;
66523;SDS011;53350;52.210;5.160;2024-03-17T14:52:50;10.60;;;5.75;;
66523;SDS011;53350;52.210;5.160;2024-03-17T14:55:17;9.77;;;5.70;;
66523;SDS011;53350;52.210;5.160;2024-03-17T14:57:44;11.38;;;5.68;;
66523;SDS011;53350;52.210;5.160;2024-03-17T15:00:11;10.48;;;5.35;;
66523;SDS011;53350;52.210;5.160;2024-03-17T15:02:43;14.63;;;5.88;;